Wayne City, Illinois
Current Conditions -  °F | °C
As of 6:55 PM on Monday 26 Jan 2015 (Local Time) from KFWC Reporting Station
Overcast Overcast  
Wind Chill: 31°   Ceiling: 3300
Heat Index: 31°   Visibility: 10mi
Dew Point: 28°   Wind: 3mph
Humidity: 90%   Direction: 150°SSE
Pressure: 29.94"   Gusts: NA
Location:  38.35°N, 88.59°W
Report Text: KFWC 270055Z AUTO 15003KT 10SM OVC033 M01/M02 A2994 RMK AO1 T10061020
Loading
Personal Weather Stations






























Interactive Weather Map New forecast layout! Learn more

10-Day Weather Forecast

Advertisements
Track Severe Weather on mobile